sensor_id;sensor_type;location;lat;lon;timestamp;pressure;altitude;pressure_sealevel;temperature;humidity
46464;BME280;32161;48.148;-1.554;2023-12-29T00:01:05;101017.44;;;10.30;100.00
46464;BME280;32161;48.148;-1.554;2023-12-29T00:03:32;101009.44;;;10.35;100.00
46464;BME280;32161;48.148;-1.554;2023-12-29T00:06:03;101006.56;;;10.30;100.00
46464;BME280;32161;48.148;-1.554;2023-12-29T00:08:30;101002.41;;;10.21;100.00
46464;BME280;32161;48.148;-1.554;2023-12-29T00:10:59;101002.13;;;10.36;100.00
46464;BME280;32161;48.148;-1.554;2023-12-29T00:13:27;101002.19;;;10.29;100.00
46464;BME280;32161;48.148;-1.554;2023-12-29T00:15:55;100999.66;;;10.34;100.00
46464;BME280;32161;48.148;-1.554;2023-12-29T00:18:22;100996.00;;;10.40;100.00
46464;BME280;32161;48.148;-1.554;2023-12-29T00:20:50;100993.97;;;10.36;100.00
46464;BME280;32161;48.148;-1.554;2023-12-29T00:23:17;100992.91;;;10.37;100.00
46464;BME280;32161;48.148;-1.554;2023-12-29T00:25:45;100995.81;;;10.42;100.00
46464;BME280;32161;48.148;-1.554;2023-12-29T00:28:14;101000.84;;;10.38;100.00
46464;BME280;32161;48.148;-1.554;2023-12-29T00:30:41;100997.47;;;10.43;100.00
46464;BME280;32161;48.148;-1.554;2023-12-29T00:33:09;101000.19;;;10.43;100.00
46464;BME280;32161;48.148;-1.554;2023-12-29T00:35:37;100999.03;;;10.32;100.00
46464;BME280;32161;48.148;-1.554;2023-12-29T00:38:05;101009.34;;;10.17;100.00
46464;BME280;32161;48.148;-1.554;2023-12-29T00:40:32;101005.63;;;10.43;100.00
46464;BME280;32161;48.148;-1.554;2023-12-29T00:43:00;101003.09;;;10.41;100.00
46464;BME280;32161;48.148;-1.554;2023-12-29T00:45:29;100996.31;;;10.32;100.00
46464;BME280;32161;48.148;-1.554;2023-12-29T00:47:59;100991.31;;;10.54;100.00
46464;BME280;32161;48.148;-1.554;2023-12-29T00:50:27;100981.69;;;10.51;100.00
46464;BME280;32161;48.148;-1.554;2023-12-29T00:52:54;100982.97;;;10.49;100.00
46464;BME280;32161;48.148;-1.554;2023-12-29T00:55:22;100977.91;;;10.52;100.00
46464;BME280;32161;48.148;-1.554;2023-12-29T00:57:49;100979.31;;;10.62;100.00
46464;BME280;32161;48.148;-1.554;2023-12-29T01:00:17;100974.91;;;10.61;100.00
46464;BME280;32161;48.148;-1.554;2023-12-29T01:02:46;100973.03;;;10.61;100.00
46464;BME280;32161;48.148;-1.554;2023-12-29T01:05:15;100966.75;;;10.61;100.00
46464;BME280;32161;48.148;-1.554;2023-12-29T01:07:43;100968.81;;;10.65;100.00
46464;BME280;32161;48.148;-1.554;2023-12-29T01:10:11;100959.16;;;10.69;100.00
46464;BME280;32161;48.148;-1.554;2023-12-29T01:12:38;100961.72;;;10.83;100.00
46464;BME280;32161;48.148;-1.554;2023-12-29T01:15:07;100963.59;;;10.64;100.00
46464;BME280;32161;48.148;-1.554;2023-12-29T01:17:34;100971.00;;;10.75;100.00
46464;BME280;32161;48.148;-1.554;2023-12-29T01:20:04;100973.34;;;10.71;100.00
46464;BME280;32161;48.148;-1.554;2023-12-29T01:22:32;100973.66;;;10.82;100.00
46464;BME280;32161;48.148;-1.554;2023-12-29T01:25:00;100978.53;;;10.91;100.00
46464;BME280;32161;48.148;-1.554;2023-12-29T01:27:28;100979.53;;;10.97;100.00
46464;BME280;32161;48.148;-1.554;2023-12-29T01:29:56;100981.44;;;10.78;100.00
46464;BME280;32161;48.148;-1.554;2023-12-29T01:32:23;100979.78;;;10.77;100.00
46464;BME280;32161;48.148;-1.554;2023-12-29T01:34:52;100984.28;;;10.83;100.00
46464;BME280;32161;48.148;-1.554;2023-12-29T01:37:21;100980.06;;;11.06;100.00
46464;BME280;32161;48.148;-1.554;2023-12-29T01:39:49;100973.03;;;11.16;100.00
46464;BME280;32161;48.148;-1.554;2023-12-29T01:42:16;100970.69;;;11.02;100.00
46464;BME280;32161;48.148;-1.554;2023-12-29T01:44:44;100979.63;;;10.90;100.00
46464;BME280;32161;48.148;-1.554;2023-12-29T01:47:14;100966.91;;;11.03;100.00
46464;BME280;32161;48.148;-1.554;2023-12-29T01:49:44;100977.06;;;10.77;100.00
46464;BME280;32161;48.148;-1.554;2023-12-29T01:52:14;100968.44;;;10.80;100.00
46464;BME280;32161;48.148;-1.554;2023-12-29T01:54:45;100978.25;;;10.81;100.00
46464;BME280;32161;48.148;-1.554;2023-12-29T01:57:13;100977.19;;;10.82;100.00
46464;BME280;32161;48.148;-1.554;2023-12-29T01:59:41;100981.66;;;10.77;100.00
46464;BME280;32161;48.148;-1.554;2023-12-29T02:02:11;100980.59;;;10.78;100.00
46464;BME280;32161;48.148;-1.554;2023-12-29T02:04:40;100980.69;;;10.89;100.00
46464;BME280;32161;48.148;-1.554;2023-12-29T02:07:08;100973.28;;;10.96;100.00
46464;BME280;32161;48.148;-1.554;2023-12-29T02:09:36;100974.72;;;10.81;100.00
46464;BME280;32161;48.148;-1.554;2023-12-29T02:12:06;100976.13;;;10.83;100.00
46464;BME280;32161;48.148;-1.554;2023-12-29T02:14:34;100972.06;;;10.92;100.00
46464;BME280;32161;48.148;-1.554;2023-12-29T02:17:08;100978.34;;;10.93;100.00
46464;BME280;32161;48.148;-1.554;2023-12-29T02:19:40;100968.34;;;10.87;100.00
46464;BME280;32161;48.148;-1.554;2023-12-29T02:22:11;100969.19;;;10.87;100.00
46464;BME280;32161;48.148;-1.554;2023-12-29T02:24:39;100970.69;;;11.02;100.00
46464;BME280;32161;48.148;-1.554;2023-12-29T02:27:25;100974.63;;;10.87;100.00
46464;BME280;32161;48.148;-1.554;2023-12-29T02:30:10;100959.69;;;10.96;100.00
46464;BME280;32161;48.148;-1.554;2023-12-29T02:32:42;100960.13;;;10.93;100.00
46464;BME280;32161;48.148;-1.554;2023-12-29T02:35:13;100946.84;;;11.04;100.00
46464;BME280;32161;48.148;-1.554;2023-12-29T02:37:42;100948.19;;;10.94;100.00
46464;BME280;32161;48.148;-1.554;2023-12-29T02:40:11;100947.59;;;11.11;100.00
46464;BME280;32161;48.148;-1.554;2023-12-29T02:42:45;100950.50;;;11.09;100.00
46464;BME280;32161;48.148;-1.554;2023-12-29T02:45:14;100946.53;;;10.93;100.00
46464;BME280;32161;48.148;-1.554;2023-12-29T02:47:42;100953.47;;;10.89;100.00
46464;BME280;32161;48.148;-1.554;2023-12-29T02:50:10;100946.97;;;10.90;100.00
46464;BME280;32161;48.148;-1.554;2023-12-29T02:52:38;100943.50;;;11.02;100.00
46464;BME280;32161;48.148;-1.554;2023-12-29T02:55:06;100935.78;;;11.17;100.00
46464;BME280;32161;48.148;-1.554;2023-12-29T02:57:34;100930.72;;;11.02;100.00
46464;BME280;32161;48.148;-1.554;2023-12-29T03:00:05;100932.69;;;11.13;100.00
46464;BME280;32161;48.148;-1.554;2023-12-29T03:02:33;100930.25;;;11.23;100.00
46464;BME280;32161;48.148;-1.554;2023-12-29T03:05:00;100927.56;;;11.05;100.00
46464;BME280;32161;48.148;-1.554;2023-12-29T03:07:28;100930.34;;;10.98;100.00
46464;BME280;32161;48.148;-1.554;2023-12-29T03:09:55;100932.09;;;10.93;100.00
46464;BME280;32161;48.148;-1.554;2023-12-29T03:12:23;100915.09;;;10.97;100.00
46464;BME280;32161;48.148;-1.554;2023-12-29T03:14:51;100906.47;;;11.00;100.00
46464;BME280;32161;48.148;-1.554;2023-12-29T03:17:20;100906.47;;;11.00;100.00
46464;BME280;32161;48.148;-1.554;2023-12-29T03:19:47;100916.84;;;10.92;100.00
46464;BME280;32161;48.148;-1.554;2023-12-29T03:22:15;100907.69;;;10.86;100.00
46464;BME280;32161;48.148;-1.554;2023-12-29T03:24:42;100910.22;;;10.88;100.00
46464;BME280;32161;48.148;-1.554;2023-12-29T03:27:10;100907.31;;;11.01;100.00
46464;BME280;32161;48.148;-1.554;2023-12-29T03:29:38;100908.44;;;10.93;100.00
46464;BME280;32161;48.148;-1.554;2023-12-29T03:32:06;100916.00;;;10.91;100.00
46464;BME280;32161;48.148;-1.554;2023-12-29T03:34:35;100921.91;;;10.88;100.00
46464;BME280;32161;48.148;-1.554;2023-12-29T03:37:03;100938.44;;;10.68;100.00
46464;BME280;32161;48.148;-1.554;2023-12-29T03:39:30;100924.34;;;10.78;100.00
46464;BME280;32161;48.148;-1.554;2023-12-29T03:42:01;100921.28;;;10.86;100.00
46464;BME280;32161;48.148;-1.554;2023-12-29T03:44:29;100915.03;;;11.04;100.00
46464;BME280;32161;48.148;-1.554;2023-12-29T03:46:56;100914.41;;;11.02;100.00
46464;BME280;32161;48.148;-1.554;2023-12-29T03:49:24;100914.78;;;10.87;100.00
46464;BME280;32161;48.148;-1.554;2023-12-29T03:51:53;100914.31;;;11.09;100.00
46464;BME280;32161;48.148;-1.554;2023-12-29T03:54:20;100905.78;;;11.05;100.00
46464;BME280;32161;48.148;-1.554;2023-12-29T03:56:48;100905.78;;;11.05;100.00
46464;BME280;32161;48.148;-1.554;2023-12-29T03:59:15;100910.03;;;11.01;100.00
46464;BME280;32161;48.148;-1.554;2023-12-29T04:01:43;100900.22;;;11.00;100.00
46464;BME280;32161;48.148;-1.554;2023-12-29T04:04:10;100905.59;;;10.88;100.00
46464;BME280;32161;48.148;-1.554;2023-12-29T04:06:38;100900.16;;;10.88;100.00
46464;BME280;32161;48.148;-1.554;2023-12-29T04:09:07;100896.84;;;11.16;100.00
46464;BME280;32161;48.148;-1.554;2023-12-29T04:11:34;100898.28;;;11.19;100.00
46464;BME280;32161;48.148;-1.554;2023-12-29T04:14:02;100902.56;;;10.96;100.00
46464;BME280;32161;48.148;-1.554;2023-12-29T04:16:29;100893.66;;;10.89;100.00
46464;BME280;32161;48.148;-1.554;2023-12-29T04:18:57;100893.47;;;11.03;100.00
46464;BME280;32161;48.148;-1.554;2023-12-29T04:21:24;100891.53;;;10.91;100.00
46464;BME280;32161;48.148;-1.554;2023-12-29T04:23:53;100888.81;;;10.91;100.00
46464;BME280;32161;48.148;-1.554;2023-12-29T04:26:22;100894.78;;;11.00;100.00
46464;BME280;32161;48.148;-1.554;2023-12-29T04:28:50;100896.47;;;11.13;100.00
46464;BME280;32161;48.148;-1.554;2023-12-29T04:31:17;100887.50;;;11.12;100.00
46464;BME280;32161;48.148;-1.554;2023-12-29T04:33:45;100885.22;;;11.09;100.00
46464;BME280;32161;48.148;-1.554;2023-12-29T04:36:13;100883.66;;;11.02;100.00
46464;BME280;32161;48.148;-1.554;2023-12-29T04:38:40;100883.22;;;10.86;100.00
46464;BME280;32161;48.148;-1.554;2023-12-29T04:41:08;100875.19;;;10.91;100.00
46464;BME280;32161;48.148;-1.554;2023-12-29T04:43:37;100885.38;;;10.66;100.00
46464;BME280;32161;48.148;-1.554;2023-12-29T04:46:04;100884.44;;;10.72;100.00
46464;BME280;32161;48.148;-1.554;2023-12-29T04:48:32;100873.56;;;10.72;100.00
46464;BME280;32161;48.148;-1.554;2023-12-29T04:50:59;100874.63;;;10.71;100.00
46464;BME280;32161;48.148;-1.554;2023-12-29T04:53:27;100870.41;;;10.75;100.00
46464;BME280;32161;48.148;-1.554;2023-12-29T04:55:54;100877.50;;;10.76;100.00
46464;BME280;32161;48.148;-1.554;2023-12-29T04:58:22;100876.28;;;10.90;100.00
46464;BME280;32161;48.148;-1.554;2023-12-29T05:00:51;100874.94;;;10.81;100.00
46464;BME280;32161;48.148;-1.554;2023-12-29T05:03:18;100882.28;;;10.81;100.00
46464;BME280;32161;48.148;-1.554;2023-12-29T05:05:46;100885.19;;;10.79;100.00
46464;BME280;32161;48.148;-1.554;2023-12-29T05:08:13;100887.09;;;10.79;100.00
46464;BME280;32161;48.148;-1.554;2023-12-29T05:10:41;100887.78;;;10.74;100.00
46464;BME280;32161;48.148;-1.554;2023-12-29T05:13:08;100899.56;;;10.68;100.00
46464;BME280;32161;48.148;-1.554;2023-12-29T05:15:36;100897.44;;;10.70;100.00
46464;BME280;32161;48.148;-1.554;2023-12-29T05:18:05;100895.63;;;10.82;100.00
46464;BME280;32161;48.148;-1.554;2023-12-29T05:20:33;100892.06;;;10.82;100.00
46464;BME280;32161;48.148;-1.554;2023-12-29T05:23:00;100889.72;;;10.85;100.00
46464;BME280;32161;48.148;-1.554;2023-12-29T05:25:28;100890.75;;;11.03;100.00
46464;BME280;32161;48.148;-1.554;2023-12-29T05:27:56;100893.50;;;11.14;100.00
46464;BME280;32161;48.148;-1.554;2023-12-29T05:30:23;100888.19;;;11.08;100.00
46464;BME280;32161;48.148;-1.554;2023-12-29T05:32:52;100889.88;;;11.20;100.00
46464;BME280;32161;48.148;-1.554;2023-12-29T05:35:21;100891.09;;;11.24;100.00
46464;BME280;32161;48.148;-1.554;2023-12-29T05:37:49;100891.66;;;11.15;100.00
46464;BME280;32161;48.148;-1.554;2023-12-29T05:40:17;100898.41;;;10.94;100.00
46464;BME280;32161;48.148;-1.554;2023-12-29T05:42:44;100906.50;;;10.82;100.00
46464;BME280;32161;48.148;-1.554;2023-12-29T05:45:12;100904.22;;;10.79;100.00
46464;BME280;32161;48.148;-1.554;2023-12-29T05:47:40;100916.47;;;10.88;100.00
46464;BME280;32161;48.148;-1.554;2023-12-29T05:50:08;100908.50;;;11.05;100.00
46464;BME280;32161;48.148;-1.554;2023-12-29T05:52:37;100905.75;;;11.23;100.00
46464;BME280;32161;48.148;-1.554;2023-12-29T05:55:05;100904.69;;;11.24;100.00
46464;BME280;32161;48.148;-1.554;2023-12-29T05:57:33;100899.97;;;11.02;100.00
46464;BME280;32161;48.148;-1.554;2023-12-29T06:00:01;100897.50;;;11.00;100.00
46464;BME280;32161;48.148;-1.554;2023-12-29T06:02:28;100896.94;;;11.10;100.00
46464;BME280;32161;48.148;-1.554;2023-12-29T06:04:56;100895.47;;;11.25;100.00
46464;BME280;32161;48.148;-1.554;2023-12-29T06:07:24;100891.78;;;11.20;100.00
46464;BME280;32161;48.148;-1.554;2023-12-29T06:09:53;100890.66;;;11.09;100.00
46464;BME280;32161;48.148;-1.554;2023-12-29T06:12:20;100897.56;;;11.12;100.00
46464;BME280;32161;48.148;-1.554;2023-12-29T06:14:48;100894.59;;;11.13;100.00
46464;BME280;32161;48.148;-1.554;2023-12-29T06:17:16;100893.44;;;11.21;100.00
46464;BME280;32161;48.148;-1.554;2023-12-29T06:19:43;100888.19;;;11.08;100.00
46464;BME280;32161;48.148;-1.554;2023-12-29T06:22:11;100877.75;;;11.05;100.00
46464;BME280;32161;48.148;-1.554;2023-12-29T06:24:40;100869.69;;;11.28;100.00
46464;BME280;32161;48.148;-1.554;2023-12-29T06:27:09;100872.88;;;11.25;100.00
46464;BME280;32161;48.148;-1.554;2023-12-29T06:29:37;100883.75;;;11.25;100.00
46464;BME280;32161;48.148;-1.554;2023-12-29T06:32:05;100871.66;;;11.21;100.00
46464;BME280;32161;48.148;-1.554;2023-12-29T06:34:33;100870.56;;;11.10;100.00
46464;BME280;32161;48.148;-1.554;2023-12-29T06:37:01;100881.06;;;11.07;100.00
46464;BME280;32161;48.148;-1.554;2023-12-29T06:39:28;100877.34;;;11.19;100.00
46464;BME280;32161;48.148;-1.554;2023-12-29T06:41:56;100872.03;;;11.24;100.00
46464;BME280;32161;48.148;-1.554;2023-12-29T06:44:25;100874.47;;;11.14;100.00
46464;BME280;32161;48.148;-1.554;2023-12-29T06:46:52;100880.53;;;11.16;100.00
46464;BME280;32161;48.148;-1.554;2023-12-29T06:49:20;100879.97;;;10.96;100.00
46464;BME280;32161;48.148;-1.554;2023-12-29T06:51:48;100889.66;;;10.92;100.00
46464;BME280;32161;48.148;-1.554;2023-12-29T06:54:15;100889.84;;;11.09;100.00
46464;BME280;32161;48.148;-1.554;2023-12-29T06:56:43;100884.78;;;11.12;100.00
46464;BME280;32161;48.148;-1.554;2023-12-29T06:59:11;100892.31;;;11.10;100.00
46464;BME280;32161;48.148;-1.554;2023-12-29T07:01:40;100890.09;;;11.07;100.00
46464;BME280;32161;48.148;-1.554;2023-12-29T07:04:08;100893.84;;;11.06;100.00
46464;BME280;32161;48.148;-1.554;2023-12-29T07:06:36;100891.22;;;10.99;100.00
46464;BME280;32161;48.148;-1.554;2023-12-29T07:09:04;100894.09;;;11.05;100.00
46464;BME280;32161;48.148;-1.554;2023-12-29T07:11:32;100892.59;;;10.90;100.00
46464;BME280;32161;48.148;-1.554;2023-12-29T07:14:00;100896.06;;;10.97;100.00
46464;BME280;32161;48.148;-1.554;2023-12-29T07:16:27;100900.22;;;11.00;100.00
46464;BME280;32161;48.148;-1.554;2023-12-29T07:18:56;100904.09;;;10.92;100.00
46464;BME280;32161;48.148;-1.554;2023-12-29T07:21:24;100891.63;;;10.85;100.00
46464;BME280;32161;48.148;-1.554;2023-12-29T07:23:52;100901.81;;;10.89;100.00
46464;BME280;32161;48.148;-1.554;2023-12-29T07:26:19;100892.06;;;11.00;100.00
46464;BME280;32161;48.148;-1.554;2023-12-29T07:28:47;100885.50;;;10.89;100.00
46464;BME280;32161;48.148;-1.554;2023-12-29T07:31:20;100885.25;;;10.91;100.00
46464;BME280;32161;48.148;-1.554;2023-12-29T07:33:49;100880.63;;;10.91;100.00
46464;BME280;32161;48.148;-1.554;2023-12-29T07:36:18;100882.31;;;10.92;100.00
46464;BME280;32161;48.148;-1.554;2023-12-29T07:38:45;100884.59;;;10.95;100.00
46464;BME280;32161;48.148;-1.554;2023-12-29T07:41:13;100894.31;;;11.03;100.00
46464;BME280;32161;48.148;-1.554;2023-12-29T07:43:41;100888.34;;;10.94;100.00
46464;BME280;32161;48.148;-1.554;2023-12-29T07:46:08;100890.28;;;11.06;100.00
46464;BME280;32161;48.148;-1.554;2023-12-29T07:48:36;100885.16;;;11.16;100.00
46464;BME280;32161;48.148;-1.554;2023-12-29T07:51:06;100882.09;;;11.24;100.00
46464;BME280;32161;48.148;-1.554;2023-12-29T07:53:35;100880.47;;;11.05;100.00
46464;BME280;32161;48.148;-1.554;2023-12-29T07:56:03;100880.13;;;11.31;100.00
46464;BME280;32161;48.148;-1.554;2023-12-29T07:58:30;100876.75;;;11.17;100.00
46464;BME280;32161;48.148;-1.554;2023-12-29T08:00:58;100870.34;;;11.12;100.00
46464;BME280;32161;48.148;-1.554;2023-12-29T08:03:26;100875.28;;;11.03;100.00
46464;BME280;32161;48.148;-1.554;2023-12-29T08:05:53;100884.81;;;10.94;100.00
46464;BME280;32161;48.148;-1.554;2023-12-29T08:08:21;100873.69;;;11.25;100.00
46464;BME280;32161;48.148;-1.554;2023-12-29T08:10:50;100865.66;;;11.19;100.00
46464;BME280;32161;48.148;-1.554;2023-12-29T08:13:17;100874.91;;;11.41;100.00
46464;BME280;32161;48.148;-1.554;2023-12-29T08:15:45;100871.31;;;11.17;100.00
46464;BME280;32161;48.148;-1.554;2023-12-29T08:18:12;100871.22;;;11.24;100.00
46464;BME280;32161;48.148;-1.554;2023-12-29T08:20:40;100878.84;;;11.04;100.00
46464;BME280;32161;48.148;-1.554;2023-12-29T08:23:09;100876.53;;;11.19;100.00
46464;BME280;32161;48.148;-1.554;2023-12-29T08:25:36;100881.81;;;11.14;100.00
46464;BME280;32161;48.148;-1.554;2023-12-29T08:28:05;100873.94;;;11.24;100.00
46464;BME280;32161;48.148;-1.554;2023-12-29T08:30:35;100885.69;;;11.36;100.00
46464;BME280;32161;48.148;-1.554;2023-12-29T08:33:03;100894.97;;;11.17;100.00
46464;BME280;32161;48.148;-1.554;2023-12-29T08:35:31;100885.69;;;11.36;100.00
46464;BME280;32161;48.148;-1.554;2023-12-29T08:37:59;100887.78;;;11.22;100.00
46464;BME280;32161;48.148;-1.554;2023-12-29T08:40:27;100887.53;;;11.24;100.00
46464;BME280;32161;48.148;-1.554;2023-12-29T08:42:55;100895.50;;;11.37;100.00
46464;BME280;32161;48.148;-1.554;2023-12-29T08:45:24;100903.94;;;11.47;100.00
46464;BME280;32161;48.148;-1.554;2023-12-29T08:47:52;100897.50;;;11.30;100.00
46464;BME280;32161;48.148;-1.554;2023-12-29T08:50:20;100893.03;;;11.36;100.00
46464;BME280;32161;48.148;-1.554;2023-12-29T08:52:48;100902.38;;;11.40;100.00
46464;BME280;32161;48.148;-1.554;2023-12-29T08:55:15;100910.69;;;11.57;100.00
46464;BME280;32161;48.148;-1.554;2023-12-29T08:57:43;100909.38;;;11.47;100.00
46464;BME280;32161;48.148;-1.554;2023-12-29T09:00:11;100922.25;;;11.40;100.00
46464;BME280;32161;48.148;-1.554;2023-12-29T09:02:40;100924.25;;;11.33;100.00
46464;BME280;32161;48.148;-1.554;2023-12-29T09:05:08;100926.16;;;11.44;100.00
46464;BME280;32161;48.148;-1.554;2023-12-29T09:07:36;100922.59;;;11.74;100.00
46464;BME280;32161;48.148;-1.554;2023-12-29T09:10:05;100928.25;;;11.61;100.00
46464;BME280;32161;48.148;-1.554;2023-12-29T09:12:34;100930.78;;;11.44;100.00
46464;BME280;32161;48.148;-1.554;2023-12-29T09:15:02;100925.78;;;11.71;100.00
46464;BME280;32161;48.148;-1.554;2023-12-29T09:17:29;100936.63;;;11.89;100.00
46464;BME280;32161;48.148;-1.554;2023-12-29T09:19:58;100930.94;;;11.91;100.00
46464;BME280;32161;48.148;-1.554;2023-12-29T09:22:26;100928.91;;;11.86;100.00
46464;BME280;32161;48.148;-1.554;2023-12-29T09:24:54;100932.47;;;11.98;100.00
46464;BME280;32161;48.148;-1.554;2023-12-29T09:27:22;100928.00;;;11.92;100.00
46464;BME280;32161;48.148;-1.554;2023-12-29T09:29:50;100932.47;;;11.98;100.00
46464;BME280;32161;48.148;-1.554;2023-12-29T09:32:18;100933.91;;;12.01;100.00
46464;BME280;32161;48.148;-1.554;2023-12-29T09:34:45;100936.91;;;12.00;100.00
46464;BME280;32161;48.148;-1.554;2023-12-29T09:37:14;100939.28;;;12.19;100.00
46464;BME280;32161;48.148;-1.554;2023-12-29T09:39:42;100922.66;;;12.33;100.00
46464;BME280;32161;48.148;-1.554;2023-12-29T09:42:18;100926.94;;;12.40;100.00
46464;BME280;32161;48.148;-1.554;2023-12-29T09:44:49;100935.72;;;12.19;100.00
46464;BME280;32161;48.148;-1.554;2023-12-29T09:47:23;100930.97;;;12.50;100.00
46464;BME280;32161;48.148;-1.554;2023-12-29T09:49:52;100926.72;;;12.30;100.00
46464;BME280;32161;48.148;-1.554;2023-12-29T09:52:22;100925.66;;;12.31;100.00
46464;BME280;32161;48.148;-1.554;2023-12-29T09:54:52;100932.75;;;12.20;100.00
46464;BME280;32161;48.148;-1.554;2023-12-29T09:57:20;100937.13;;;12.21;100.00
46464;BME280;32161;48.148;-1.554;2023-12-29T09:59:49;100937.28;;;12.38;100.00
46464;BME280;32161;48.148;-1.554;2023-12-29T10:02:18;100936.81;;;12.41;100.00
46464;BME280;32161;48.148;-1.554;2023-12-29T10:04:48;100940.22;;;12.25;100.00
46464;BME280;32161;48.148;-1.554;2023-12-29T10:07:23;100939.16;;;12.38;100.00
46464;BME280;32161;48.148;-1.554;2023-12-29T10:09:55;100950.53;;;12.35;100.00
46464;BME280;32161;48.148;-1.554;2023-12-29T10:12:25;100949.34;;;12.54;100.00
46464;BME280;32161;48.148;-1.554;2023-12-29T10:15:05;100949.44;;;12.71;100.00
46464;BME280;32161;48.148;-1.554;2023-12-29T10:17:49;100951.78;;;12.79;100.00
46464;BME280;32161;48.148;-1.554;2023-12-29T10:20:30;100951.69;;;12.74;100.00
46464;BME280;32161;48.148;-1.554;2023-12-29T10:23:08;100950.50;;;12.70;100.00
46464;BME280;32161;48.148;-1.554;2023-12-29T10:25:36;100946.50;;;12.73;100.00
46464;BME280;32161;48.148;-1.554;2023-12-29T10:28:05;100961.84;;;12.90;100.00
46464;BME280;32161;48.148;-1.554;2023-12-29T10:30:33;100945.75;;;12.77;100.00
46464;BME280;32161;48.148;-1.554;2023-12-29T10:33:00;100955.50;;;12.73;100.00
46464;BME280;32161;48.148;-1.554;2023-12-29T10:35:30;100961.91;;;12.67;100.00
46464;BME280;32161;48.148;-1.554;2023-12-29T10:38:10;100959.75;;;12.81;100.00
46464;BME280;32161;48.148;-1.554;2023-12-29T10:40:38;100959.63;;;12.64;100.00
46464;BME280;32161;48.148;-1.554;2023-12-29T10:43:06;100962.09;;;12.89;100.00
46464;BME280;32161;48.148;-1.554;2023-12-29T10:45:34;100962.50;;;12.69;100.00
46464;BME280;32161;48.148;-1.554;2023-12-29T10:48:03;100966.28;;;12.56;100.00
46464;BME280;32161;48.148;-1.554;2023-12-29T10:50:31;100960.94;;;12.73;100.00
46464;BME280;32161;48.148;-1.554;2023-12-29T10:53:15;100959.41;;;12.77;100.00
46464;BME280;32161;48.148;-1.554;2023-12-29T10:55:43;100958.09;;;12.91;100.00
46464;BME280;32161;48.148;-1.554;2023-12-29T10:58:11;100960.19;;;12.89;100.00
46464;BME280;32161;48.148;-1.554;2023-12-29T11:00:39;100959.94;;;13.03;100.00
46464;BME280;32161;48.148;-1.554;2023-12-29T11:03:06;100963.84;;;12.95;100.00
46464;BME280;32161;48.148;-1.554;2023-12-29T11:05:34;100948.16;;;13.14;100.00
46464;BME280;32161;48.148;-1.554;2023-12-29T11:08:02;100946.28;;;13.03;100.00
46464;BME280;32161;48.148;-1.554;2023-12-29T11:10:43;100951.41;;;12.87;100.00
46464;BME280;32161;48.148;-1.554;2023-12-29T11:13:12;100937.44;;;12.72;100.00
46464;BME280;32161;48.148;-1.554;2023-12-29T11:15:43;100930.41;;;13.00;100.00
46464;BME280;32161;48.148;-1.554;2023-12-29T11:18:14;100927.69;;;13.00;100.00
46464;BME280;32161;48.148;-1.554;2023-12-29T11:20:45;100922.22;;;13.00;100.00
46464;BME280;32161;48.148;-1.554;2023-12-29T11:23:13;100923.19;;;13.22;100.00
46464;BME280;32161;48.148;-1.554;2023-12-29T11:25:44;100922.41;;;13.10;100.00
46464;BME280;32161;48.148;-1.554;2023-12-29T11:28:11;100923.50;;;13.09;100.00
46464;BME280;32161;48.148;-1.554;2023-12-29T11:30:39;100920.47;;;13.22;100.00
46464;BME280;32161;48.148;-1.554;2023-12-29T11:33:12;100907.78;;;13.28;100.00
46464;BME280;32161;48.148;-1.554;2023-12-29T11:35:45;100910.19;;;13.24;100.00
46464;BME280;32161;48.148;-1.554;2023-12-29T11:38:45;100899.63;;;13.16;100.00
46464;BME280;32161;48.148;-1.554;2023-12-29T11:41:25;100905.56;;;13.13;100.00
46464;BME280;32161;48.148;-1.554;2023-12-29T11:43:57;100897.34;;;13.25;100.00
46464;BME280;32161;48.148;-1.554;2023-12-29T11:46:35;100912.97;;;13.01;100.00
46464;BME280;32161;48.148;-1.554;2023-12-29T11:49:04;100906.13;;;12.86;100.00
46464;BME280;32161;48.148;-1.554;2023-12-29T11:51:34;100925.88;;;12.65;100.00
46464;BME280;32161;48.148;-1.554;2023-12-29T11:54:02;100928.47;;;12.60;100.00
46464;BME280;32161;48.148;-1.554;2023-12-29T11:56:40;100924.69;;;12.61;100.00
46464;BME280;32161;48.148;-1.554;2023-12-29T11:59:15;100923.34;;;12.63;100.00
46464;BME280;32161;48.148;-1.554;2023-12-29T12:01:46;100918.72;;;12.64;100.00
46464;BME280;32161;48.148;-1.554;2023-12-29T12:04:38;100910.88;;;12.79;100.00
46464;BME280;32161;48.148;-1.554;2023-12-29T12:07:13;100908.75;;;12.81;100.00
46464;BME280;32161;48.148;-1.554;2023-12-29T12:09:41;100902.00;;;13.24;100.00
46464;BME280;32161;48.148;-1.554;2023-12-29T12:12:11;100888.22;;;13.19;100.00
46464;BME280;32161;48.148;-1.554;2023-12-29T12:14:50;100888.78;;;13.21;100.00
46464;BME280;32161;48.148;-1.554;2023-12-29T12:17:29;100887.72;;;13.34;100.00
46464;BME280;32161;48.148;-1.554;2023-12-29T12:20:03;100890.59;;;13.27;100.00
46464;BME280;32161;48.148;-1.554;2023-12-29T12:22:31;100878.13;;;13.48;100.00
46464;BME280;32161;48.148;-1.554;2023-12-29T12:25:00;100887.72;;;13.22;100.00
46464;BME280;32161;48.148;-1.554;2023-12-29T12:27:29;100889.53;;;13.16;100.00
46464;BME280;32161;48.148;-1.554;2023-12-29T12:29:59;100880.78;;;13.03;100.00
46464;BME280;32161;48.148;-1.554;2023-12-29T12:32:28;100883.97;;;13.23;100.00
46464;BME280;32161;48.148;-1.554;2023-12-29T12:34:56;100888.69;;;13.16;100.00
46464;BME280;32161;48.148;-1.554;2023-12-29T12:37:25;100882.41;;;13.15;100.00
46464;BME280;32161;48.148;-1.554;2023-12-29T12:39:54;100869.50;;;13.11;100.00